Etusivu
METAR-TAF:

METAR-TAF

Lentoasemat :

Teheran, Iran

Leveyspiiri: 35-41N, Pituuspiiri: 051-21E, korkeus merenpinnasta: 1204 m

Tämänhetkinen sää

Tämä raportti tehtiin 16 minuuttia sitten, kello 19.00 UTC
tyyntä
Lämpötila 32°C
Kosteus 16%
Ilmanpaine 1010 hPa
Näkyvyys 10 km tai enemmän
ei pilviä alle 1500 m:ssä eikä cumulonimbus-pilviä

METAR: OIII 171900Z 00000KT CAVOK 32/03 Q1009 A2982 NOSIG

Aika: 23:46 (19:16 UTC)

Sääennuste

Tämä raportti tehtiin 1 tunti ja 46 minuuttia sitten, kello 17.30 UTC
Ennuste voimassa 17. päivästä klo 18 UTC - 18. päivään klo 24 UTC
Tuuli 8 kn idästä/koillisesta
Ajoittain
18. päivästä klo 06 UTC - 18. päivään klo 12 UTC
Tuuli 12 kn kaakosta

TAF: OIII 171730Z 1718/1824 07004MPS NSC TEMPO 1806/1812 13006MPS

Säähavainnot ja -ennusteet yli 4000 lentoasemalta (METAR- ja TAF-raportit).

Käytössä olevat sääasemat on merkitty karttaan keltaisilla ja punaisilla pisteillä.

Aseta hiiri pisteen päälle nähdäksesi sääaseman nimen.

Klikkaa sitten nähdäksesi säähavainnot ja -ennusteet.

Kartan vaihtaminen: klikkaa mustalla rastilla varustettuja vihreitä pisteitä, niin voit zoomata sisään; viivalla varustettua vihreää pistettä, niin voit zoomata ulos tai vihreitä nuolia, niin pääset viereisille kartoille.


METAR-TAF: